sensor_id;sensor_type;location;lat;lon;timestamp;P1;durP1;ratioP1;P2;durP2;ratioP2
76589;SDS011;65471;55.908;37.880;2023-07-13T00:00:47;5.80;;;4.22;;
76589;SDS011;65471;55.908;37.880;2023-07-13T00:03:14;5.05;;;4.65;;
76589;SDS011;65471;55.908;37.880;2023-07-13T00:05:42;4.88;;;4.43;;
76589;SDS011;65471;55.908;37.880;2023-07-13T00:08:09;5.75;;;4.18;;
76589;SDS011;65471;55.908;37.880;2023-07-13T00:10:41;14.73;;;4.70;;
76589;SDS011;65471;55.908;37.880;2023-07-13T00:13:08;9.05;;;4.05;;
76589;SDS011;65471;55.908;37.880;2023-07-13T00:15:36;4.82;;;3.88;;
76589;SDS011;65471;55.908;37.880;2023-07-13T00:18:03;4.97;;;4.30;;
76589;SDS011;65471;55.908;37.880;2023-07-13T00:20:30;6.05;;;4.28;;
76589;SDS011;65471;55.908;37.880;2023-07-13T00:22:57;7.32;;;4.57;;
76589;SDS011;65471;55.908;37.880;2023-07-13T00:25:24;5.85;;;4.78;;
76589;SDS011;65471;55.908;37.880;2023-07-13T00:27:54;12.32;;;4.75;;
76589;SDS011;65471;55.908;37.880;2023-07-13T00:30:22;4.50;;;4.10;;
76589;SDS011;65471;55.908;37.880;2023-07-13T00:32:49;4.85;;;3.88;;
76589;SDS011;65471;55.908;37.880;2023-07-13T00:35:33;7.40;;;4.70;;
76589;SDS011;65471;55.908;37.880;2023-07-13T00:38:01;6.13;;;4.38;;
76589;SDS011;65471;55.908;37.880;2023-07-13T00:40:28;8.80;;;4.57;;
76589;SDS011;65471;55.908;37.880;2023-07-13T00:42:56;5.28;;;4.32;;
76589;SDS011;65471;55.908;37.880;2023-07-13T00:47:51;7.82;;;4.05;;
76589;SDS011;65471;55.908;37.880;2023-07-13T00:50:19;14.48;;;4.47;;
76589;SDS011;65471;55.908;37.880;2023-07-13T00:52:49;6.82;;;4.57;;
76589;SDS011;65471;55.908;37.880;2023-07-13T00:55:20;6.07;;;4.30;;
76589;SDS011;65471;55.908;37.880;2023-07-13T00:57:49;6.20;;;4.47;;
76589;SDS011;65471;55.908;37.880;2023-07-13T01:00:16;7.55;;;4.00;;
76589;SDS011;65471;55.908;37.880;2023-07-13T01:02:45;10.10;;;4.40;;
76589;SDS011;65471;55.908;37.880;2023-07-13T01:05:14;9.52;;;3.85;;
76589;SDS011;65471;55.908;37.880;2023-07-13T01:07:43;4.53;;;4.22;;
76589;SDS011;65471;55.908;37.880;2023-07-13T01:10:12;4.20;;;3.78;;
76589;SDS011;65471;55.908;37.880;2023-07-13T01:12:39;4.83;;;4.00;;
76589;SDS011;65471;55.908;37.880;2023-07-13T01:18:10;4.70;;;3.80;;
76589;SDS011;65471;55.908;37.880;2023-07-13T01:20:39;4.38;;;3.97;;
76589;SDS011;65471;55.908;37.880;2023-07-13T01:23:07;5.15;;;4.00;;
76589;SDS011;65471;55.908;37.880;2023-07-13T01:25:36;9.05;;;4.20;;
76589;SDS011;65471;55.908;37.880;2023-07-13T01:28:05;4.85;;;3.53;;
76589;SDS011;65471;55.908;37.880;2023-07-13T01:30:32;4.30;;;3.90;;
76589;SDS011;65471;55.908;37.880;2023-07-13T01:32:59;5.55;;;3.88;;
76589;SDS011;65471;55.908;37.880;2023-07-13T01:35:26;4.28;;;3.92;;
76589;SDS011;65471;55.908;37.880;2023-07-13T01:37:53;4.53;;;4.07;;
76589;SDS011;65471;55.908;37.880;2023-07-13T01:40:20;11.15;;;3.97;;
76589;SDS011;65471;55.908;37.880;2023-07-13T01:42:48;6.65;;;3.80;;
76589;SDS011;65471;55.908;37.880;2023-07-13T01:45:15;4.60;;;4.00;;
76589;SDS011;65471;55.908;37.880;2023-07-13T01:47:42;3.85;;;3.55;;
76589;SDS011;65471;55.908;37.880;2023-07-13T01:50:09;9.27;;;4.20;;
76589;SDS011;65471;55.908;37.880;2023-07-13T01:52:36;5.55;;;3.75;;
76589;SDS011;65471;55.908;37.880;2023-07-13T01:55:04;4.28;;;3.88;;
76589;SDS011;65471;55.908;37.880;2023-07-13T01:57:31;7.03;;;4.05;;
76589;SDS011;65471;55.908;37.880;2023-07-13T01:59:58;6.25;;;4.20;;
76589;SDS011;65471;55.908;37.880;2023-07-13T02:02:25;9.20;;;4.13;;
76589;SDS011;65471;55.908;37.880;2023-07-13T02:04:52;5.43;;;3.60;;
76589;SDS011;65471;55.908;37.880;2023-07-13T02:07:19;10.38;;;4.22;;
76589;SDS011;65471;55.908;37.880;2023-07-13T02:09:45;7.90;;;3.72;;
76589;SDS011;65471;55.908;37.880;2023-07-13T02:12:13;3.95;;;3.65;;
76589;SDS011;65471;55.908;37.880;2023-07-13T02:14:59;8.38;;;3.78;;
76589;SDS011;65471;55.908;37.880;2023-07-13T02:17:44;7.40;;;4.30;;
76589;SDS011;65471;55.908;37.880;2023-07-13T02:20:30;11.55;;;4.15;;
76589;SDS011;65471;55.908;37.880;2023-07-13T02:23:16;7.38;;;4.13;;
76589;SDS011;65471;55.908;37.880;2023-07-13T02:26:04;7.78;;;4.28;;
76589;SDS011;65471;55.908;37.880;2023-07-13T02:28:51;5.63;;;3.95;;
76589;SDS011;65471;55.908;37.880;2023-07-13T02:31:37;4.82;;;4.43;;
76589;SDS011;65471;55.908;37.880;2023-07-13T02:34:23;5.10;;;4.05;;
76589;SDS011;65471;55.908;37.880;2023-07-13T02:37:08;5.75;;;4.05;;
76589;SDS011;65471;55.908;37.880;2023-07-13T02:39:35;6.22;;;3.53;;
76589;SDS011;65471;55.908;37.880;2023-07-13T02:42:02;8.02;;;4.25;;
76589;SDS011;65471;55.908;37.880;2023-07-13T02:44:30;6.72;;;4.13;;
76589;SDS011;65471;55.908;37.880;2023-07-13T02:46:57;9.85;;;3.97;;
76589;SDS011;65471;55.908;37.880;2023-07-13T02:49:24;5.80;;;4.10;;
76589;SDS011;65471;55.908;37.880;2023-07-13T02:51:51;6.32;;;4.18;;
76589;SDS011;65471;55.908;37.880;2023-07-13T02:54:18;6.15;;;4.00;;
76589;SDS011;65471;55.908;37.880;2023-07-13T02:56:44;4.43;;;3.97;;
76589;SDS011;65471;55.908;37.880;2023-07-13T02:59:11;11.65;;;4.20;;
76589;SDS011;65471;55.908;37.880;2023-07-13T03:01:40;6.60;;;3.80;;
76589;SDS011;65471;55.908;37.880;2023-07-13T03:04:09;8.38;;;4.57;;
76589;SDS011;65471;55.908;37.880;2023-07-13T03:06:36;6.88;;;4.00;;
76589;SDS011;65471;55.908;37.880;2023-07-13T03:09:03;10.95;;;4.20;;
76589;SDS011;65471;55.908;37.880;2023-07-13T03:11:30;6.22;;;4.70;;
76589;SDS011;65471;55.908;37.880;2023-07-13T03:13:58;9.50;;;4.03;;
76589;SDS011;65471;55.908;37.880;2023-07-13T03:16:25;6.18;;;4.32;;
76589;SDS011;65471;55.908;37.880;2023-07-13T03:18:52;15.68;;;4.82;;
76589;SDS011;65471;55.908;37.880;2023-07-13T03:21:19;4.90;;;4.07;;
76589;SDS011;65471;55.908;37.880;2023-07-13T03:23:46;6.65;;;4.50;;
76589;SDS011;65471;55.908;37.880;2023-07-13T03:26:16;13.17;;;4.40;;
76589;SDS011;65471;55.908;37.880;2023-07-13T03:28:45;5.20;;;4.63;;
76589;SDS011;65471;55.908;37.880;2023-07-13T03:31:14;4.80;;;4.28;;
76589;SDS011;65471;55.908;37.880;2023-07-13T03:33:43;6.55;;;4.53;;
76589;SDS011;65471;55.908;37.880;2023-07-13T03:36:14;9.35;;;4.90;;
76589;SDS011;65471;55.908;37.880;2023-07-13T03:38:55;7.30;;;4.47;;
76589;SDS011;65471;55.908;37.880;2023-07-13T03:41:24;6.30;;;4.72;;
76589;SDS011;65471;55.908;37.880;2023-07-13T03:43:51;7.45;;;4.38;;
76589;SDS011;65471;55.908;37.880;2023-07-13T03:46:19;8.65;;;4.35;;
76589;SDS011;65471;55.908;37.880;2023-07-13T03:48:46;11.25;;;5.22;;
76589;SDS011;65471;55.908;37.880;2023-07-13T03:51:14;4.75;;;4.35;;
76589;SDS011;65471;55.908;37.880;2023-07-13T03:53:43;5.90;;;4.35;;
76589;SDS011;65471;55.908;37.880;2023-07-13T03:56:11;10.32;;;4.93;;
76589;SDS011;65471;55.908;37.880;2023-07-13T03:58:41;11.43;;;4.60;;
76589;SDS011;65471;55.908;37.880;2023-07-13T04:01:10;11.50;;;4.38;;
76589;SDS011;65471;55.908;37.880;2023-07-13T04:03:38;4.50;;;4.20;;
76589;SDS011;65471;55.908;37.880;2023-07-13T04:06:06;4.93;;;4.47;;
76589;SDS011;65471;55.908;37.880;2023-07-13T04:08:35;13.50;;;4.68;;
76589;SDS011;65471;55.908;37.880;2023-07-13T04:11:03;6.72;;;5.00;;
76589;SDS011;65471;55.908;37.880;2023-07-13T04:13:31;6.60;;;4.53;;
76589;SDS011;65471;55.908;37.880;2023-07-13T04:15:58;12.73;;;4.72;;
76589;SDS011;65471;55.908;37.880;2023-07-13T04:18:25;9.20;;;4.60;;
76589;SDS011;65471;55.908;37.880;2023-07-13T04:20:52;4.97;;;4.53;;
76589;SDS011;65471;55.908;37.880;2023-07-13T04:23:19;6.70;;;4.75;;
76589;SDS011;65471;55.908;37.880;2023-07-13T04:25:46;6.07;;;4.38;;
76589;SDS011;65471;55.908;37.880;2023-07-13T04:28:16;5.20;;;4.65;;
76589;SDS011;65471;55.908;37.880;2023-07-13T04:30:44;5.22;;;4.32;;
76589;SDS011;65471;55.908;37.880;2023-07-13T04:33:11;6.20;;;4.30;;
76589;SDS011;65471;55.908;37.880;2023-07-13T04:35:38;5.00;;;4.60;;
76589;SDS011;65471;55.908;37.880;2023-07-13T04:38:05;5.22;;;4.65;;
76589;SDS011;65471;55.908;37.880;2023-07-13T04:40:33;17.00;;;5.10;;
76589;SDS011;65471;55.908;37.880;2023-07-13T04:43:00;17.20;;;5.05;;
76589;SDS011;65471;55.908;37.880;2023-07-13T04:45:27;13.45;;;4.82;;
76589;SDS011;65471;55.908;37.880;2023-07-13T04:47:54;8.07;;;4.38;;
76589;SDS011;65471;55.908;37.880;2023-07-13T04:50:21;10.02;;;5.15;;
76589;SDS011;65471;55.908;37.880;2023-07-13T04:52:50;8.95;;;4.82;;
76589;SDS011;65471;55.908;37.880;2023-07-13T04:55:18;6.57;;;4.77;;
76589;SDS011;65471;55.908;37.880;2023-07-13T04:57:46;6.93;;;4.35;;
76589;SDS011;65471;55.908;37.880;2023-07-13T05:00:14;21.02;;;4.47;;
76589;SDS011;65471;55.908;37.880;2023-07-13T05:02:45;8.38;;;4.82;;
76589;SDS011;65471;55.908;37.880;2023-07-13T05:05:12;14.63;;;4.82;;
76589;SDS011;65471;55.908;37.880;2023-07-13T05:07:40;5.78;;;4.47;;
76589;SDS011;65471;55.908;37.880;2023-07-13T05:10:07;10.63;;;4.88;;
76589;SDS011;65471;55.908;37.880;2023-07-13T05:12:34;12.40;;;5.43;;
76589;SDS011;65471;55.908;37.880;2023-07-13T05:15:02;5.85;;;4.70;;
76589;SDS011;65471;55.908;37.880;2023-07-13T05:17:31;5.05;;;4.53;;
76589;SDS011;65471;55.908;37.880;2023-07-13T05:19:58;21.35;;;5.63;;
76589;SDS011;65471;55.908;37.880;2023-07-13T05:22:25;8.80;;;4.38;;
76589;SDS011;65471;55.908;37.880;2023-07-13T05:24:52;10.85;;;5.03;;
76589;SDS011;65471;55.908;37.880;2023-07-13T05:27:19;12.57;;;4.75;;
76589;SDS011;65471;55.908;37.880;2023-07-13T05:29:46;6.63;;;4.53;;
76589;SDS011;65471;55.908;37.880;2023-07-13T05:32:13;23.35;;;4.90;;
76589;SDS011;65471;55.908;37.880;2023-07-13T05:34:40;6.13;;;4.55;;
76589;SDS011;65471;55.908;37.880;2023-07-13T05:37:07;16.85;;;5.00;;
76589;SDS011;65471;55.908;37.880;2023-07-13T05:39:34;6.30;;;5.15;;
76589;SDS011;65471;55.908;37.880;2023-07-13T05:42:02;9.85;;;4.90;;
76589;SDS011;65471;55.908;37.880;2023-07-13T05:44:29;10.95;;;4.70;;
76589;SDS011;65471;55.908;37.880;2023-07-13T05:46:56;10.15;;;4.10;;
76589;SDS011;65471;55.908;37.880;2023-07-13T05:49:23;7.57;;;4.50;;
76589;SDS011;65471;55.908;37.880;2023-07-13T05:51:50;14.75;;;5.13;;
76589;SDS011;65471;55.908;37.880;2023-07-13T05:54:17;7.57;;;4.40;;
76589;SDS011;65471;55.908;37.880;2023-07-13T05:56:44;10.40;;;4.72;;
76589;SDS011;65471;55.908;37.880;2023-07-13T05:59:11;17.50;;;5.15;;
76589;SDS011;65471;55.908;37.880;2023-07-13T06:01:38;4.93;;;4.53;;
76589;SDS011;65471;55.908;37.880;2023-07-13T06:04:05;15.70;;;4.90;;
76589;SDS011;65471;55.908;37.880;2023-07-13T06:06:33;12.35;;;4.95;;
76589;SDS011;65471;55.908;37.880;2023-07-13T06:09:00;6.15;;;4.53;;
76589;SDS011;65471;55.908;37.880;2023-07-13T06:11:27;6.88;;;4.82;;
76589;SDS011;65471;55.908;37.880;2023-07-13T06:13:56;7.07;;;4.90;;
76589;SDS011;65471;55.908;37.880;2023-07-13T06:16:24;13.30;;;4.75;;
76589;SDS011;65471;55.908;37.880;2023-07-13T06:18:51;11.35;;;4.80;;
76589;SDS011;65471;55.908;37.880;2023-07-13T06:21:19;9.45;;;4.53;;
76589;SDS011;65471;55.908;37.880;2023-07-13T06:23:48;4.70;;;4.30;;
76589;SDS011;65471;55.908;37.880;2023-07-13T06:26:16;19.55;;;4.53;;
76589;SDS011;65471;55.908;37.880;2023-07-13T06:28:44;22.77;;;4.57;;
76589;SDS011;65471;55.908;37.880;2023-07-13T06:31:12;8.60;;;4.60;;
76589;SDS011;65471;55.908;37.880;2023-07-13T06:33:40;12.88;;;4.68;;
76589;SDS011;65471;55.908;37.880;2023-07-13T06:36:07;8.48;;;4.57;;
76589;SDS011;65471;55.908;37.880;2023-07-13T06:38:36;5.70;;;4.30;;
76589;SDS011;65471;55.908;37.880;2023-07-13T06:41:04;11.37;;;4.97;;
76589;SDS011;65471;55.908;37.880;2023-07-13T06:43:32;6.47;;;4.53;;
76589;SDS011;65471;55.908;37.880;2023-07-13T06:45:59;5.20;;;4.40;;
76589;SDS011;65471;55.908;37.880;2023-07-13T06:48:26;6.60;;;4.28;;
76589;SDS011;65471;55.908;37.880;2023-07-13T06:50:54;9.38;;;4.75;;
76589;SDS011;65471;55.908;37.880;2023-07-13T06:53:22;15.57;;;4.72;;
76589;SDS011;65471;55.908;37.880;2023-07-13T06:55:49;20.10;;;4.95;;
76589;SDS011;65471;55.908;37.880;2023-07-13T06:58:16;5.38;;;4.28;;
76589;SDS011;65471;55.908;37.880;2023-07-13T07:00:45;16.33;;;4.50;;
76589;SDS011;65471;55.908;37.880;2023-07-13T07:03:12;16.47;;;4.77;;
76589;SDS011;65471;55.908;37.880;2023-07-13T07:05:39;7.50;;;3.78;;
76589;SDS011;65471;55.908;37.880;2023-07-13T07:08:06;11.48;;;4.50;;
76589;SDS011;65471;55.908;37.880;2023-07-13T07:10:34;14.45;;;5.15;;
76589;SDS011;65471;55.908;37.880;2023-07-13T07:13:01;6.43;;;3.95;;
76589;SDS011;65471;55.908;37.880;2023-07-13T07:15:29;15.75;;;4.10;;
76589;SDS011;65471;55.908;37.880;2023-07-13T07:17:56;14.50;;;4.50;;
76589;SDS011;65471;55.908;37.880;2023-07-13T07:20:23;12.15;;;5.00;;
76589;SDS011;65471;55.908;37.880;2023-07-13T07:22:51;14.15;;;4.00;;
76589;SDS011;65471;55.908;37.880;2023-07-13T07:25:18;8.10;;;4.28;;
76589;SDS011;65471;55.908;37.880;2023-07-13T07:27:45;17.88;;;4.43;;
76589;SDS011;65471;55.908;37.880;2023-07-13T07:30:15;10.88;;;4.20;;
76589;SDS011;65471;55.908;37.880;2023-07-13T07:32:45;13.50;;;4.20;;
76589;SDS011;65471;55.908;37.880;2023-07-13T07:35:27;13.00;;;4.05;;
76589;SDS011;65471;55.908;37.880;2023-07-13T07:37:56;14.20;;;4.40;;
76589;SDS011;65471;55.908;37.880;2023-07-13T07:40:23;16.98;;;4.03;;
76589;SDS011;65471;55.908;37.880;2023-07-13T07:42:53;13.90;;;4.70;;
76589;SDS011;65471;55.908;37.880;2023-07-13T07:45:20;16.20;;;4.95;;
76589;SDS011;65471;55.908;37.880;2023-07-13T07:47:47;6.25;;;4.60;;
76589;SDS011;65471;55.908;37.880;2023-07-13T07:50:14;6.00;;;5.00;;
76589;SDS011;65471;55.908;37.880;2023-07-13T07:52:41;19.23;;;5.25;;
76589;SDS011;65471;55.908;37.880;2023-07-13T07:55:10;6.30;;;4.50;;
76589;SDS011;65471;55.908;37.880;2023-07-13T07:57:40;8.05;;;5.00;;
76589;SDS011;65471;55.908;37.880;2023-07-13T08:00:10;9.00;;;4.82;;
76589;SDS011;65471;55.908;37.880;2023-07-13T08:02:59;11.15;;;5.93;;
76589;SDS011;65471;55.908;37.880;2023-07-13T08:06:05;31.52;;;5.72;;
76589;SDS011;65471;55.908;37.880;2023-07-13T08:08:53;10.20;;;5.50;;
76589;SDS011;65471;55.908;37.880;2023-07-13T08:11:39;6.47;;;5.25;;
76589;SDS011;65471;55.908;37.880;2023-07-13T08:17:33;19.70;;;6.25;;
76589;SDS011;65471;55.908;37.880;2023-07-13T08:20:19;12.68;;;5.13;;
76589;SDS011;65471;55.908;37.880;2023-07-13T08:23:04;10.73;;;5.28;;
76589;SDS011;65471;55.908;37.880;2023-07-13T08:25:51;13.10;;;5.80;;
76589;SDS011;65471;55.908;37.880;2023-07-13T08:28:38;11.63;;;5.65;;
76589;SDS011;65471;55.908;37.880;2023-07-13T08:31:23;5.57;;;5.07;;
76589;SDS011;65471;55.908;37.880;2023-07-13T08:34:08;10.73;;;5.32;;
76589;SDS011;65471;55.908;37.880;2023-07-13T08:36:54;14.88;;;6.18;;
76589;SDS011;65471;55.908;37.880;2023-07-13T08:39:39;16.42;;;6.15;;
76589;SDS011;65471;55.908;37.880;2023-07-13T08:48:09;16.45;;;6.57;;
76589;SDS011;65471;55.908;37.880;2023-07-13T08:50:46;17.00;;;6.78;;
76589;SDS011;65471;55.908;37.880;2023-07-13T08:53:39;16.52;;;6.40;;
76589;SDS011;65471;55.908;37.880;2023-07-13T08:56:19;19.55;;;6.60;;
76589;SDS011;65471;55.908;37.880;2023-07-13T08:58:49;24.00;;;6.22;;
76589;SDS011;65471;55.908;37.880;2023-07-13T09:04:22;22.63;;;6.68;;
76589;SDS011;65471;55.908;37.880;2023-07-13T09:12:31;29.73;;;6.70;;
76589;SDS011;65471;55.908;37.880;2023-07-13T09:15:25;21.92;;;6.22;;
76589;SDS011;65471;55.908;37.880;2023-07-13T09:17:59;22.85;;;6.95;;
76589;SDS011;65471;55.908;37.880;2023-07-13T09:20:31;22.13;;;7.15;;
76589;SDS011;65471;55.908;37.880;2023-07-13T09:23:07;11.82;;;6.68;;
76589;SDS011;65471;55.908;37.880;2023-07-13T09:25:40;7.43;;;5.80;;
76589;SDS011;65471;55.908;37.880;2023-07-13T09:33:20;20.98;;;6.07;;
76589;SDS011;65471;55.908;37.880;2023-07-13T09:35:49;11.05;;;5.20;;
76589;SDS011;65471;55.908;37.880;2023-07-13T09:38:17;20.38;;;5.05;;
76589;SDS011;65471;55.908;37.880;2023-07-13T09:44:10;7.75;;;5.13;;
76589;SDS011;65471;55.908;37.880;2023-07-13T09:46:42;5.25;;;4.75;;
76589;SDS011;65471;55.908;37.880;2023-07-13T09:49:12;11.07;;;5.00;;
76589;SDS011;65471;55.908;37.880;2023-07-13T09:51:42;7.10;;;4.70;;
76589;SDS011;65471;55.908;37.880;2023-07-13T09:54:18;14.60;;;4.95;;
76589;SDS011;65471;55.908;37.880;2023-07-13T09:56:46;19.00;;;5.13;;
76589;SDS011;65471;55.908;37.880;2023-07-13T09:59:20;6.40;;;4.72;;
76589;SDS011;65471;55.908;37.880;2023-07-13T10:01:50;6.45;;;4.70;;
76589;SDS011;65471;55.908;37.880;2023-07-13T10:04:18;5.07;;;4.40;;
76589;SDS011;65471;55.908;37.880;2023-07-13T10:09:16;13.30;;;4.95;;
76589;SDS011;65471;55.908;37.880;2023-07-13T10:11:45;7.22;;;4.55;;
76589;SDS011;65471;55.908;37.880;2023-07-13T10:14:16;6.38;;;4.93;;
76589;SDS011;65471;55.908;37.880;2023-07-13T10:16:47;7.00;;;4.82;;
76589;SDS011;65471;55.908;37.880;2023-07-13T10:19:23;12.52;;;5.50;;
76589;SDS011;65471;55.908;37.880;2023-07-13T10:21:54;13.65;;;5.68;;
76589;SDS011;65471;55.908;37.880;2023-07-13T10:24:27;17.67;;;6.60;;
76589;SDS011;65471;55.908;37.880;2023-07-13T10:27:10;7.32;;;6.10;;
76589;SDS011;65471;55.908;37.880;2023-07-13T10:29:47;9.77;;;5.90;;
76589;SDS011;65471;55.908;37.880;2023-07-13T10:32:18;17.63;;;5.75;;
76589;SDS011;65471;55.908;37.880;2023-07-13T10:34:49;29.70;;;6.60;;
76589;SDS011;65471;55.908;37.880;2023-07-13T10:37:19;13.05;;;5.72;;
76589;SDS011;65471;55.908;37.880;2023-07-13T10:39:52;10.82;;;6.53;;
76589;SDS011;65471;55.908;37.880;2023-07-13T10:42:32;34.28;;;7.75;;
76589;SDS011;65471;55.908;37.880;2023-07-13T10:45:16;10.07;;;6.40;;
76589;SDS011;65471;55.908;37.880;2023-07-13T10:47:47;23.38;;;6.63;;
76589;SDS011;65471;55.908;37.880;2023-07-13T10:50:20;12.43;;;7.30;;
76589;SDS011;65471;55.908;37.880;2023-07-13T10:53:01;13.95;;;7.43;;
76589;SDS011;65471;55.908;37.880;2023-07-13T10:58:23;23.85;;;7.70;;
76589;SDS011;65471;55.908;37.880;2023-07-13T11:01:11;24.33;;;7.10;;
76589;SDS011;65471;55.908;37.880;2023-07-13T11:06:33;29.35;;;8.30;;
76589;SDS011;65471;55.908;37.880;2023-07-13T11:12:00;15.18;;;6.50;;
76589;SDS011;65471;55.908;37.880;2023-07-13T11:14:30;14.85;;;7.00;;
76589;SDS011;65471;55.908;37.880;2023-07-13T11:16:57;14.35;;;7.55;;
76589;SDS011;65471;55.908;37.880;2023-07-13T11:19:27;25.33;;;8.23;;
76589;SDS011;65471;55.908;37.880;2023-07-13T11:27:50;14.70;;;6.43;;
76589;SDS011;65471;55.908;37.880;2023-07-13T11:35:50;30.92;;;6.70;;
76589;SDS011;65471;55.908;37.880;2023-07-13T11:41:03;13.90;;;5.97;;
76589;SDS011;65471;55.908;37.880;2023-07-13T11:43:40;24.98;;;7.35;;
76589;SDS011;65471;55.908;37.880;2023-07-13T11:46:43;10.80;;;6.05;;
76589;SDS011;65471;55.908;37.880;2023-07-13T11:48:59;10.40;;;6.30;;
76589;SDS011;65471;55.908;37.880;2023-07-13T11:51:28;9.57;;;6.32;;
76589;SDS011;65471;55.908;37.880;2023-07-13T11:54:01;23.98;;;6.35;;
76589;SDS011;65471;55.908;37.880;2023-07-13T11:56:31;18.17;;;7.47;;
76589;SDS011;65471;55.908;37.880;2023-07-13T12:01:31;13.30;;;6.60;;
76589;SDS011;65471;55.908;37.880;2023-07-13T12:04:02;16.67;;;6.93;;
76589;SDS011;65471;55.908;37.880;2023-07-13T12:09:00;19.58;;;7.20;;
76589;SDS011;65471;55.908;37.880;2023-07-13T12:11:30;9.60;;;7.10;;
76589;SDS011;65471;55.908;37.880;2023-07-13T12:14:02;26.30;;;8.00;;
76589;SDS011;65471;55.908;37.880;2023-07-13T12:16:30;15.18;;;6.68;;
76589;SDS011;65471;55.908;37.880;2023-07-13T12:19:00;21.63;;;8.32;;
76589;SDS011;65471;55.908;37.880;2023-07-13T12:24:05;15.30;;;7.28;;
76589;SDS011;65471;55.908;37.880;2023-07-13T12:26:41;20.73;;;8.13;;
76589;SDS011;65471;55.908;37.880;2023-07-13T12:29:11;15.93;;;7.55;;
76589;SDS011;65471;55.908;37.880;2023-07-13T12:31:44;23.42;;;8.15;;
76589;SDS011;65471;55.908;37.880;2023-07-13T12:34:14;18.80;;;7.72;;
76589;SDS011;65471;55.908;37.880;2023-07-13T12:41:48;22.50;;;8.60;;
76589;SDS011;65471;55.908;37.880;2023-07-13T12:44:18;29.15;;;8.13;;
76589;SDS011;65471;55.908;37.880;2023-07-13T12:46:53;22.20;;;8.07;;
76589;SDS011;65471;55.908;37.880;2023-07-13T12:49:24;26.15;;;9.55;;
76589;SDS011;65471;55.908;37.880;2023-07-13T12:51:56;18.63;;;8.18;;
76589;SDS011;65471;55.908;37.880;2023-07-13T12:54:29;17.23;;;8.55;;
76589;SDS011;65471;55.908;37.880;2023-07-13T12:56:57;29.83;;;10.20;;
76589;SDS011;65471;55.908;37.880;2023-07-13T12:59:29;30.85;;;9.68;;
76589;SDS011;65471;55.908;37.880;2023-07-13T13:01:59;20.80;;;9.43;;
76589;SDS011;65471;55.908;37.880;2023-07-13T13:04:27;19.13;;;9.05;;
76589;SDS011;65471;55.908;37.880;2023-07-13T13:07:02;26.38;;;10.95;;
76589;SDS011;65471;55.908;37.880;2023-07-13T13:09:30;29.15;;;10.95;;
76589;SDS011;65471;55.908;37.880;2023-07-13T13:11:57;25.33;;;9.70;;
76589;SDS011;65471;55.908;37.880;2023-07-13T13:14:25;32.40;;;10.77;;
76589;SDS011;65471;55.908;37.880;2023-07-13T13:16:52;63.42;;;12.05;;
76589;SDS011;65471;55.908;37.880;2023-07-13T13:19:22;29.08;;;10.18;;
76589;SDS011;65471;55.908;37.880;2023-07-13T13:21:52;31.75;;;11.60;;
76589;SDS011;65471;55.908;37.880;2023-07-13T13:24:21;22.85;;;10.95;;
76589;SDS011;65471;55.908;37.880;2023-07-13T13:26:50;54.03;;;11.40;;
76589;SDS011;65471;55.908;37.880;2023-07-13T13:29:20;42.97;;;11.27;;
76589;SDS011;65471;55.908;37.880;2023-07-13T13:31:51;38.03;;;11.05;;
76589;SDS011;65471;55.908;37.880;2023-07-13T13:34:20;30.92;;;11.30;;
76589;SDS011;65471;55.908;37.880;2023-07-13T13:36:53;48.33;;;12.07;;
76589;SDS011;65471;55.908;37.880;2023-07-13T13:39:35;38.47;;;10.45;;
76589;SDS011;65471;55.908;37.880;2023-07-13T13:42:08;35.15;;;10.15;;
76589;SDS011;65471;55.908;37.880;2023-07-13T13:44:35;23.85;;;9.98;;
76589;SDS011;65471;55.908;37.880;2023-07-13T13:47:02;31.83;;;10.10;;
76589;SDS011;65471;55.908;37.880;2023-07-13T13:49:30;37.13;;;10.55;;
76589;SDS011;65471;55.908;37.880;2023-07-13T13:51:57;28.85;;;10.00;;
76589;SDS011;65471;55.908;37.880;2023-07-13T13:54:25;36.35;;;10.77;;
76589;SDS011;65471;55.908;37.880;2023-07-13T13:56:53;33.90;;;11.43;;
76589;SDS011;65471;55.908;37.880;2023-07-13T13:59:20;30.85;;;9.80;;
76589;SDS011;65471;55.908;37.880;2023-07-13T14:01:47;30.58;;;11.27;;
76589;SDS011;65471;55.908;37.880;2023-07-13T14:04:17;38.90;;;10.43;;
76589;SDS011;65471;55.908;37.880;2023-07-13T14:06:46;29.75;;;11.30;;
76589;SDS011;65471;55.908;37.880;2023-07-13T14:09:14;24.73;;;10.38;;
76589;SDS011;65471;55.908;37.880;2023-07-13T14:11:42;31.10;;;10.80;;
76589;SDS011;65471;55.908;37.880;2023-07-13T14:14:16;21.70;;;9.90;;
76589;SDS011;65471;55.908;37.880;2023-07-13T14:16:47;43.10;;;10.45;;
76589;SDS011;65471;55.908;37.880;2023-07-13T14:19:20;30.00;;;10.65;;
76589;SDS011;65471;55.908;37.880;2023-07-13T14:21:48;31.60;;;10.38;;
76589;SDS011;65471;55.908;37.880;2023-07-13T14:24:16;33.17;;;10.68;;
76589;SDS011;65471;55.908;37.880;2023-07-13T14:26:45;28.50;;;10.57;;
76589;SDS011;65471;55.908;37.880;2023-07-13T14:29:13;39.15;;;11.35;;
76589;SDS011;65471;55.908;37.880;2023-07-13T14:31:44;29.20;;;9.85;;
76589;SDS011;65471;55.908;37.880;2023-07-13T14:34:12;28.55;;;9.65;;
76589;SDS011;65471;55.908;37.880;2023-07-13T14:36:41;24.48;;;8.77;;
76589;SDS011;65471;55.908;37.880;2023-07-13T14:41:49;26.48;;;9.65;;
76589;SDS011;65471;55.908;37.880;2023-07-13T14:44:20;13.82;;;8.88;;
76589;SDS011;65471;55.908;37.880;2023-07-13T14:46:50;29.23;;;9.52;;
76589;SDS011;65471;55.908;37.880;2023-07-13T14:51:55;23.98;;;8.93;;
76589;SDS011;65471;55.908;37.880;2023-07-13T14:54:26;27.92;;;9.27;;
76589;SDS011;65471;55.908;37.880;2023-07-13T14:56:54;25.73;;;9.20;;
76589;SDS011;65471;55.908;37.880;2023-07-13T14:59:21;23.38;;;9.30;;
76589;SDS011;65471;55.908;37.880;2023-07-13T15:01:48;29.08;;;8.80;;
76589;SDS011;65471;55.908;37.880;2023-07-13T15:04:16;29.75;;;9.00;;
76589;SDS011;65471;55.908;37.880;2023-07-13T15:06:58;19.05;;;9.60;;
76589;SDS011;65471;55.908;37.880;2023-07-13T15:09:28;18.13;;;8.90;;
76589;SDS011;65471;55.908;37.880;2023-07-13T15:11:56;29.33;;;9.20;;
76589;SDS011;65471;55.908;37.880;2023-07-13T15:14:25;25.13;;;9.40;;
76589;SDS011;65471;55.908;37.880;2023-07-13T15:16:53;21.60;;;9.25;;
76589;SDS011;65471;55.908;37.880;2023-07-13T15:19:23;27.02;;;9.82;;
76589;SDS011;65471;55.908;37.880;2023-07-13T15:21:52;21.10;;;9.10;;
76589;SDS011;65471;55.908;37.880;2023-07-13T15:24:21;21.02;;;8.52;;
76589;SDS011;65471;55.908;37.880;2023-07-13T15:26:48;30.55;;;8.88;;
76589;SDS011;65471;55.908;37.880;2023-07-13T15:29:16;26.48;;;9.07;;
76589;SDS011;65471;55.908;37.880;2023-07-13T15:31:44;24.27;;;9.27;;
76589;SDS011;65471;55.908;37.880;2023-07-13T15:34:14;27.52;;;9.60;;
76589;SDS011;65471;55.908;37.880;2023-07-13T15:36:52;30.85;;;9.30;;
76589;SDS011;65471;55.908;37.880;2023-07-13T15:39:19;25.60;;;10.07;;
76589;SDS011;65471;55.908;37.880;2023-07-13T15:41:47;30.15;;;9.80;;
76589;SDS011;65471;55.908;37.880;2023-07-13T15:46:53;24.45;;;9.52;;
76589;SDS011;65471;55.908;37.880;2023-07-13T15:49:21;24.25;;;9.50;;
76589;SDS011;65471;55.908;37.880;2023-07-13T15:51:48;23.85;;;9.10;;
76589;SDS011;65471;55.908;37.880;2023-07-13T15:54:16;35.67;;;10.35;;
76589;SDS011;65471;55.908;37.880;2023-07-13T15:56:45;26.70;;;10.60;;
76589;SDS011;65471;55.908;37.880;2023-07-13T15:59:18;39.88;;;11.00;;
76589;SDS011;65471;55.908;37.880;2023-07-13T16:01:45;25.30;;;10.82;;